Time;durP1;ratioP1;P1;durP2;ratioP2;P2;SDS_P1;SDS_P2;PMS_P1;PMS_P2;Temp;Humidity;BMP_temperature;BMP_pressure;BME280_temperature;BME280_humidity;BME280_pressure;Samples;Min_cycle;Max_cycle;Signal;HPM_P1;HPM_P2
2024/04/05 00:00:39;;;;;;;;;;;24.30;38.60;;;;;;5055437;28;19994;-61
2024/04/05 00:03:05;;;;;;;;;;;24.30;38.70;;;;;;5055241;28;20388;-60
2024/04/05 00:05:31;;;;;;;;;;;24.20;38.60;;;;;;5055151;28;19924;-60
2024/04/05 00:07:57;;;;;;;;;;;24.30;38.70;;;;;;5055544;28;19978;-60
2024/04/05 00:10:23;;;;;;;;;;;24.20;38.70;;;;;;5055183;28;19929;-60
2024/04/05 00:12:49;;;;;;;;;;;24.30;38.70;;;;;;5055062;28;19951;-60
2024/04/05 00:15:15;;;;;;;;;;;24.30;38.80;;;;;;5055289;28;20296;-60
2024/04/05 00:17:41;;;;;;;;;;;24.30;38.80;;;;;;5055295;28;20031;-60
2024/04/05 00:20:07;;;;;;;;;;;24.20;38.70;;;;;;5055083;28;20279;-60
2024/04/05 00:22:32;;;;;;;;;;;24.20;38.70;;;;;;5055463;28;20370;-60
2024/04/05 00:24:58;;;;;;;;;;;24.20;38.70;;;;;;5055051;28;20369;-60
2024/04/05 00:27:24;;;;;;;;;;;24.20;38.70;;;;;;5055176;28;19924;-60
2024/04/05 00:29:50;;;;;;;;;;;24.20;38.70;;;;;;5055131;28;19929;-60
2024/04/05 00:32:16;;;;;;;;;;;24.20;38.70;;;;;;5054964;28;20282;-60
2024/04/05 00:34:42;;;;;;;;;;;24.20;38.70;;;;;;5054948;28;19932;-60
2024/04/05 00:37:08;;;;;;;;;;;24.20;38.70;;;;;;5054824;28;20016;-60
2024/04/05 00:39:34;;;;;;;;;;;24.20;38.70;;;;;;5054806;28;19925;-60
2024/04/05 00:42:00;;;;;;;;;;;24.20;38.70;;;;;;5054908;28;19932;-60
2024/04/05 00:44:26;;;;;;;;;;;24.20;38.70;;;;;;5054749;28;19925;-60
2024/04/05 00:46:51;;;;;;;;;;;24.20;38.70;;;;;;5071167;28;19925;-60
2024/04/05 00:49:17;;;;;;;;;;;24.20;38.70;;;;;;5054432;28;19928;-60
2024/04/05 00:51:43;;;;;;;;;;;24.20;38.80;;;;;;5054540;28;19976;-60
2024/04/05 00:54:09;;;;;;;;;;;24.20;38.70;;;;;;5054655;28;20358;-60
2024/04/05 00:56:36;;;;;;;;;;;24.20;38.70;;;;;;5071367;28;19947;-60
2024/04/05 00:59:02;;;;;;;;;;;24.20;38.70;;;;;;5053878;28;19932;-60
2024/04/05 01:01:28;;;;;;;;;;;24.20;38.70;;;;;;5088298;28;19998;-60
2024/04/05 01:03:54;;;;;;;;;;;24.20;38.70;;;;;;5054143;28;19925;-60
2024/04/05 01:06:20;;;;;;;;;;;24.10;38.70;;;;;;5054174;28;19925;-60
2024/04/05 01:08:46;;;;;;;;;;;24.10;38.80;;;;;;5054460;28;20023;-60
2024/04/05 01:11:12;;;;;;;;;;;24.10;38.80;;;;;;5054322;28;19991;-60
2024/04/05 01:13:37;;;;;;;;;;;24.10;38.80;;;;;;5054285;28;19933;-60
2024/04/05 01:16:06;;;;;;;;;;;24.10;38.90;;;;;;5054329;28;19936;-60
2024/04/05 01:18:32;;;;;;;;;;;24.10;39.00;;;;;;5054120;28;19932;-60
2024/04/05 01:20:59;;;;;;;;;;;24.10;39.00;;;;;;5054269;28;19928;-60
2024/04/05 01:23:27;;;;;;;;;;;24.10;39.00;;;;;;5053735;28;19991;-60
2024/04/05 01:25:53;;;;;;;;;;;24.10;39.00;;;;;;5053851;28;19925;-61
2024/04/05 01:28:19;;;;;;;;;;;24.10;39.00;;;;;;5053689;28;19932;-60
2024/04/05 01:30:45;;;;;;;;;;;24.10;39.00;;;;;;5054141;28;19924;-60
2024/04/05 01:33:10;;;;;;;;;;;24.10;39.00;;;;;;5053474;28;19924;-60
2024/04/05 01:35:37;;;;;;;;;;;24.10;39.00;;;;;;5037246;28;20328;-60
2024/04/05 01:38:03;;;;;;;;;;;24.10;39.00;;;;;;5053366;28;19925;-60
2024/04/05 01:40:29;;;;;;;;;;;24.00;38.90;;;;;;5053832;28;19971;-60
2024/04/05 01:42:55;;;;;;;;;;;24.10;39.00;;;;;;5053659;28;19929;-60
2024/04/05 01:45:21;;;;;;;;;;;24.10;39.00;;;;;;5053304;28;19925;-60
2024/04/05 01:47:47;;;;;;;;;;;24.10;38.90;;;;;;5053130;28;20378;-60
2024/04/05 01:50:14;;;;;;;;;;;24.10;38.90;;;;;;5053610;28;19925;-60
2024/04/05 01:52:40;;;;;;;;;;;24.10;38.90;;;;;;5036117;28;19932;-60
2024/04/05 01:55:06;;;;;;;;;;;24.10;38.90;;;;;;5053325;28;19924;-60
2024/04/05 01:57:35;;;;;;;;;;;24.10;38.90;;;;;;5053520;28;20015;-60
2024/04/05 02:00:01;;;;;;;;;;;24.10;38.90;;;;;;5052596;28;19939;-60
2024/04/05 02:02:27;;;;;;;;;;;24.10;38.90;;;;;;5036650;28;19924;-60
2024/04/05 02:04:53;;;;;;;;;;;24.10;38.90;;;;;;5053373;28;20259;-61
2024/04/05 02:07:22;;;;;;;;;;;24.00;38.90;;;;;;5052914;28;19931;-60
2024/04/05 02:09:48;;;;;;;;;;;24.00;38.90;;;;;;5052940;28;20003;-60
2024/04/05 02:12:15;;;;;;;;;;;24.00;39.50;;;;;;5051856;28;19925;-60
2024/04/05 02:14:41;;;;;;;;;;;24.00;39.00;;;;;;5053227;28;19925;-60
2024/04/05 02:17:07;;;;;;;;;;;24.00;39.00;;;;;;5052538;28;20293;-60
2024/04/05 02:19:33;;;;;;;;;;;24.00;39.10;;;;;;5052699;28;19968;-60
2024/04/05 02:21:58;;;;;;;;;;;23.90;39.00;;;;;;5052287;28;19931;-60
2024/04/05 02:24:24;;;;;;;;;;;23.90;39.10;;;;;;5052641;28;19925;-60
2024/04/05 02:26:50;;;;;;;;;;;23.90;39.10;;;;;;5052360;28;20008;-60
2024/04/05 02:29:17;;;;;;;;;;;23.90;39.10;;;;;;5052664;28;19987;-60
2024/04/05 02:31:43;;;;;;;;;;;23.90;39.10;;;;;;5052373;28;19929;-60
2024/04/05 02:34:09;;;;;;;;;;;23.90;39.20;;;;;;5052965;28;19970;-61
2024/04/05 02:36:34;;;;;;;;;;;23.90;39.20;;;;;;5052094;28;20340;-60
2024/04/05 02:39:00;;;;;;;;;;;23.90;39.10;;;;;;5052790;28;19925;-61
2024/04/05 02:41:26;;;;;;;;;;;23.90;39.20;;;;;;5052317;28;20405;-60
2024/04/05 02:43:52;;;;;;;;;;;23.90;39.10;;;;;;5052192;28;19925;-60
2024/04/05 02:46:18;;;;;;;;;;;23.90;39.10;;;;;;5035718;28;19932;-61
2024/04/05 02:48:44;;;;;;;;;;;23.90;39.10;;;;;;5052345;28;19932;-60
2024/04/05 02:51:09;;;;;;;;;;;23.90;39.10;;;;;;5052138;28;19925;-61
2024/04/05 02:53:35;;;;;;;;;;;23.90;39.10;;;;;;5052766;28;19924;-61
2024/04/05 02:56:01;;;;;;;;;;;23.90;39.10;;;;;;5052538;28;19951;-61
2024/04/05 02:58:27;;;;;;;;;;;23.90;39.10;;;;;;5052400;28;19925;-61
2024/04/05 03:00:56;;;;;;;;;;;23.90;39.10;;;;;;5052276;28;20413;-61
2024/04/05 03:03:22;;;;;;;;;;;24.00;39.10;;;;;;5052245;28;19967;-61
2024/04/05 03:05:48;;;;;;;;;;;24.00;39.10;;;;;;5052221;28;19929;-60
2024/04/05 03:08:15;;;;;;;;;;;23.90;39.10;;;;;;5052011;28;19932;-61
2024/04/05 03:10:41;;;;;;;;;;;23.90;39.10;;;;;;5052257;28;20373;-60
2024/04/05 03:13:07;;;;;;;;;;;23.90;39.10;;;;;;5052128;28;19931;-61
2024/04/05 03:15:34;;;;;;;;;;;23.90;39.10;;;;;;5052509;28;19932;-60
2024/04/05 03:18:00;;;;;;;;;;;23.90;39.20;;;;;;5052093;28;19932;-60
2024/04/05 03:20:26;;;;;;;;;;;23.90;39.20;;;;;;5051952;28;20263;-60
2024/04/05 03:22:52;;;;;;;;;;;23.90;39.20;;;;;;5052089;28;19925;-60
2024/04/05 03:25:18;;;;;;;;;;;23.90;39.20;;;;;;5051436;28;19928;-60
2024/04/05 03:27:44;;;;;;;;;;;23.90;39.30;;;;;;5052058;28;19982;-60
2024/04/05 03:30:10;;;;;;;;;;;23.90;39.30;;;;;;5052117;28;19932;-60
2024/04/05 03:32:37;;;;;;;;;;;23.90;39.30;;;;;;5051855;28;20366;-60
2024/04/05 03:35:05;;;;;;;;;;;23.90;39.30;;;;;;5051662;28;19925;-60
2024/04/05 03:37:32;;;;;;;;;;;23.90;39.30;;;;;;5031818;28;19971;-60
2024/04/05 03:39:58;;;;;;;;;;;23.90;39.30;;;;;;5015029;28;19929;-60
2024/04/05 03:42:24;;;;;;;;;;;23.80;39.30;;;;;;5031985;28;20024;-60
2024/04/05 03:44:50;;;;;;;;;;;23.80;39.30;;;;;;5031585;28;19951;-60
2024/04/05 03:47:16;;;;;;;;;;;23.80;39.30;;;;;;5031894;28;19971;-61
2024/04/05 03:49:41;;;;;;;;;;;23.80;39.30;;;;;;5048166;28;19928;-60
2024/04/05 03:52:07;;;;;;;;;;;23.80;39.30;;;;;;5051702;28;20137;-60
2024/04/05 03:54:33;;;;;;;;;;;23.80;39.30;;;;;;5051458;28;19925;-60
2024/04/05 03:56:59;;;;;;;;;;;23.80;39.30;;;;;;5051111;28;20329;-60
2024/04/05 03:59:26;;;;;;;;;;;23.80;39.30;;;;;;5051125;28;19929;-60
2024/04/05 04:01:52;;;;;;;;;;;23.80;39.30;;;;;;5051724;28;20271;-60
2024/04/05 04:04:18;;;;;;;;;;;23.80;39.30;;;;;;5050846;28;20424;-60
2024/04/05 04:06:44;;;;;;;;;;;23.80;39.30;;;;;;5051766;28;19925;-60
2024/04/05 04:09:11;;;;;;;;;;;23.80;39.30;;;;;;5051238;28;20345;-60
2024/04/05 04:11:37;;;;;;;;;;;23.80;39.30;;;;;;5051044;28;19956;-60
2024/04/05 04:14:03;;;;;;;;;;;23.80;39.30;;;;;;5051376;28;19936;-60
2024/04/05 04:16:30;;;;;;;;;;;23.80;39.30;;;;;;5051453;28;20378;-60
2024/04/05 04:18:55;;;;;;;;;;;23.80;39.30;;;;;;5035011;28;19932;-60
2024/04/05 04:21:25;;;;;;;;;;;23.80;39.40;;;;;;5051500;28;20361;-60
2024/04/05 04:23:51;;;;;;;;;;;23.80;39.40;;;;;;5051518;28;19925;-60
2024/04/05 04:26:17;;;;;;;;;;;23.80;39.40;;;;;;5051513;28;19948;-61
2024/04/05 04:28:43;;;;;;;;;;;23.80;39.40;;;;;;5051281;28;20370;-60
2024/04/05 04:31:16;;;;;;;;;;;23.80;39.40;;;;;;5051212;28;19925;-60
2024/04/05 04:33:42;;;;;;;;;;;23.80;39.40;;;;;;5034871;28;19929;-60
2024/04/05 04:36:08;;;;;;;;;;;23.80;39.40;;;;;;5054723;28;19928;-60
2024/04/05 04:38:34;;;;;;;;;;;23.80;39.40;;;;;;5054759;28;19932;-61
2024/04/05 04:41:00;;;;;;;;;;;23.80;39.20;;;;;;5055085;28;19924;-60
2024/04/05 04:43:26;;;;;;;;;;;23.90;39.10;;;;;;5053445;28;20429;-61
2024/04/05 04:45:52;;;;;;;;;;;23.90;38.90;;;;;;5054395;28;19931;-60
2024/04/05 04:48:18;;;;;;;;;;;23.90;38.70;;;;;;5054727;28;19928;-60
2024/04/05 04:50:44;;;;;;;;;;;23.90;38.60;;;;;;5053846;28;19925;-60
2024/04/05 04:53:10;;;;;;;;;;;24.00;38.50;;;;;;5037527;28;19937;-60
2024/04/05 04:55:36;;;;;;;;;;;24.00;38.40;;;;;;5054098;28;20278;-61
2024/04/05 04:58:02;;;;;;;;;;;24.00;38.30;;;;;;5053963;28;19925;-60
2024/04/05 05:00:27;;;;;;;;;;;24.00;38.30;;;;;;5054050;28;19929;-60
2024/04/05 05:02:53;;;;;;;;;;;24.00;38.30;;;;;;5054207;28;19929;-60
2024/04/05 05:05:19;;;;;;;;;;;24.00;38.30;;;;;;5053568;28;19924;-60
2024/04/05 05:07:45;;;;;;;;;;;24.00;38.30;;;;;;5054098;28;19979;-60
2024/04/05 05:10:11;;;;;;;;;;;24.00;38.30;;;;;;5070806;28;20410;-60
2024/04/05 05:12:37;;;;;;;;;;;24.00;38.20;;;;;;5073774;28;20496;-60
2024/04/05 05:15:03;;;;;;;;;;;24.00;38.80;;;;;;5059057;28;20012;-60
2024/04/05 05:17:29;;;;;;;;;;;24.00;38.20;;;;;;5056642;28;19925;-61
2024/04/05 05:19:55;;;;;;;;;;;23.90;38.20;;;;;;5038019;28;20027;-60
2024/04/05 05:22:20;;;;;;;;;;;24.00;38.20;;;;;;5068768;28;19981;-60
2024/04/05 05:24:47;;;;;;;;;;;24.00;38.20;;;;;;5065363;28;19929;-60
2024/04/05 05:27:13;;;;;;;;;;;24.00;38.20;;;;;;5050296;28;20328;-59
2024/04/05 05:29:39;;;;;;;;;;;24.10;38.30;;;;;;5048939;28;19984;-60
2024/04/05 05:32:07;;;;;;;;;;;24.10;38.40;;;;;;5048173;28;19925;-59
2024/04/05 05:34:33;;;;;;;;;;;24.10;38.30;;;;;;5042110;28;20019;-59
2024/04/05 05:36:59;;;;;;;;;;;24.20;38.30;;;;;;5035344;28;19924;-59
2024/04/05 05:39:25;;;;;;;;;;;24.20;38.30;;;;;;5066329;28;19924;-58
2024/04/05 05:41:51;;;;;;;;;;;24.30;38.30;;;;;;5029478;28;19925;-58
2024/04/05 05:44:17;;;;;;;;;;;24.30;39.00;;;;;;5046259;28;20007;-59
2024/04/05 05:46:44;;;;;;;;;;;24.30;38.50;;;;;;5044518;28;20377;-59
2024/04/05 05:49:09;;;;;;;;;;;24.40;38.30;;;;;;5027027;28;19936;-59
2024/04/05 05:51:35;;;;;;;;;;;24.40;38.20;;;;;;5044127;28;19925;-59
2024/04/05 05:54:01;;;;;;;;;;;24.40;38.30;;;;;;5050583;28;19931;-59
2024/04/05 05:56:27;;;;;;;;;;;24.50;38.40;;;;;;5040994;28;20528;-59
2024/04/05 05:58:53;;;;;;;;;;;24.50;38.40;;;;;;5044130;28;20400;-60
2024/04/05 06:01:19;;;;;;;;;;;24.50;38.40;;;;;;5029618;28;19925;-60
2024/04/05 06:03:45;;;;;;;;;;;24.50;38.40;;;;;;5046459;28;20024;-60
2024/04/05 06:06:11;;;;;;;;;;;24.60;38.40;;;;;;5044694;28;19925;-59
2024/04/05 06:08:39;;;;;;;;;;;24.60;38.20;;;;;;5041607;28;19960;-60
2024/04/05 06:11:04;;;;;;;;;;;24.70;38.20;;;;;;5044930;28;19925;-60
2024/04/05 06:13:30;;;;;;;;;;;24.70;38.20;;;;;;5049526;28;19924;-60
2024/04/05 06:15:57;;;;;;;;;;;24.70;38.00;;;;;;5026409;28;19944;-60
2024/04/05 06:18:27;;;;;;;;;;;24.80;38.00;;;;;;5046718;28;19932;-60
2024/04/05 06:20:55;;;;;;;;;;;24.80;37.90;;;;;;5027714;28;19929;-61
2024/04/05 06:23:25;;;;;;;;;;;24.90;37.90;;;;;;5046405;28;19925;-60
2024/04/05 06:25:51;;;;;;;;;;;24.90;37.80;;;;;;5048899;28;20378;-60
2024/04/05 06:28:18;;;;;;;;;;;24.90;37.80;;;;;;5062998;28;19932;-60
2024/04/05 06:30:44;;;;;;;;;;;25.00;37.80;;;;;;5028690;28;19929;-61
2024/04/05 06:33:10;;;;;;;;;;;25.10;38.00;;;;;;5030296;28;20473;-60
2024/04/05 06:35:35;;;;;;;;;;;25.10;38.00;;;;;;5044983;28;19924;-61
2024/04/05 06:38:01;;;;;;;;;;;25.10;37.90;;;;;;5042588;28;19924;-61
2024/04/05 06:40:27;;;;;;;;;;;25.20;38.00;;;;;;5043578;28;19931;-61
2024/04/05 06:42:53;;;;;;;;;;;25.20;38.00;;;;;;5046997;28;19925;-59
2024/04/05 06:45:19;;;;;;;;;;;25.30;37.90;;;;;;5041083;28;20036;-59
2024/04/05 06:47:45;;;;;;;;;;;25.30;37.80;;;;;;5043952;28;19976;-59
2024/04/05 06:50:11;;;;;;;;;;;25.30;37.60;;;;;;5026718;28;19933;-61
2024/04/05 06:52:37;;;;;;;;;;;25.40;37.50;;;;;;5042593;28;19929;-61
2024/04/05 06:55:03;;;;;;;;;;;25.40;37.40;;;;;;5069293;28;20015;-59
2024/04/05 06:57:29;;;;;;;;;;;25.40;37.30;;;;;;5030001;28;19936;-60
2024/04/05 06:59:55;;;;;;;;;;;25.40;37.20;;;;;;5026930;28;19933;-60
2024/04/05 07:02:21;;;;;;;;;;;25.50;37.20;;;;;;5041607;28;19932;-59
2024/04/05 07:04:46;;;;;;;;;;;25.50;37.20;;;;;;5047580;28;19979;-59
2024/04/05 07:07:12;;;;;;;;;;;25.50;37.20;;;;;;5030517;28;19929;-61
2024/04/05 07:09:38;;;;;;;;;;;25.50;37.10;;;;;;5040286;28;19940;-60
2024/04/05 07:12:06;;;;;;;;;;;25.50;37.10;;;;;;5041269;28;19961;-59
2024/04/05 07:14:31;;;;;;;;;;;25.50;37.10;;;;;;5046277;28;19939;-59
2024/04/05 07:16:57;;;;;;;;;;;25.50;37.10;;;;;;5041287;28;19928;-60
2024/04/05 07:19:24;;;;;;;;;;;25.50;37.10;;;;;;5057133;28;19936;-60
2024/04/05 07:21:50;;;;;;;;;;;25.50;37.10;;;;;;5049661;28;19933;-60
2024/04/05 07:24:16;;;;;;;;;;;25.60;37.20;;;;;;5045214;28;19932;-60
2024/04/05 07:26:42;;;;;;;;;;;25.60;37.20;;;;;;5028708;28;19933;-59
2024/04/05 07:29:09;;;;;;;;;;;25.60;37.10;;;;;;5045918;28;20947;-59
2024/04/05 07:31:38;;;;;;;;;;;25.70;37.10;;;;;;5027137;28;19929;-59
2024/04/05 07:34:05;;;;;;;;;;;25.70;37.10;;;;;;5046779;28;19929;-59
2024/04/05 07:36:32;;;;;;;;;;;25.70;37.00;;;;;;5040625;28;20219;-58
2024/04/05 07:38:58;;;;;;;;;;;25.70;36.90;;;;;;5046165;28;20409;-59
2024/04/05 07:41:24;;;;;;;;;;;25.80;37.50;;;;;;5049534;28;19933;-59
2024/04/05 07:43:52;;;;;;;;;;;25.80;36.90;;;;;;5044355;28;19932;-59
2024/04/05 07:46:18;;;;;;;;;;;25.80;36.80;;;;;;5042238;28;20381;-58
2024/04/05 07:48:45;;;;;;;;;;;25.80;36.80;;;;;;5045120;28;19929;-57
2024/04/05 07:51:11;;;;;;;;;;;25.80;36.80;;;;;;5047784;28;19933;-59
2024/04/05 07:53:37;;;;;;;;;;;25.90;37.00;;;;;;5051591;28;20539;-58
2024/04/05 07:56:03;;;;;;;;;;;25.90;37.00;;;;;;5046739;28;20012;-59
2024/04/05 07:58:29;;;;;;;;;;;25.90;37.00;;;;;;5046732;28;19924;-58
2024/04/05 08:00:56;;;;;;;;;;;25.90;37.10;;;;;;5025371;28;19986;-58
2024/04/05 08:03:22;;;;;;;;;;;25.90;37.00;;;;;;5043012;28;19933;-59
2024/04/05 08:05:48;;;;;;;;;;;25.90;36.80;;;;;;5041870;28;20556;-59
2024/04/05 08:08:14;;;;;;;;;;;25.90;36.80;;;;;;5045111;28;19924;-57
2024/04/05 08:10:41;;;;;;;;;;;25.90;37.00;;;;;;5055363;28;20366;-58
2024/04/05 08:13:07;;;;;;;;;;;26.00;37.10;;;;;;5050442;28;19975;-55
2024/04/05 08:15:33;;;;;;;;;;;26.00;37.00;;;;;;5050995;28;19947;-57
2024/04/05 08:17:59;;;;;;;;;;;26.00;37.00;;;;;;5048724;28;20362;-58
2024/04/05 08:20:25;;;;;;;;;;;26.00;37.00;;;;;;5047126;28;20020;-58
2024/04/05 08:22:51;;;;;;;;;;;26.00;37.00;;;;;;5048834;28;19932;-58
2024/04/05 08:25:17;;;;;;;;;;;26.00;37.00;;;;;;5046518;28;19935;-58
2024/04/05 08:27:43;;;;;;;;;;;26.00;37.10;;;;;;5052631;28;20397;-58
2024/04/05 08:30:12;;;;;;;;;;;26.00;37.60;;;;;;5049143;28;20267;-56
2024/04/05 08:32:39;;;;;;;;;;;26.10;37.00;;;;;;5048800;28;19975;-59
2024/04/05 08:35:05;;;;;;;;;;;26.10;37.00;;;;;;5049721;28;19925;-58
2024/04/05 08:37:31;;;;;;;;;;;26.10;36.90;;;;;;5050709;28;19932;-61
2024/04/05 08:39:58;;;;;;;;;;;26.10;36.90;;;;;;5066115;28;19976;-59
2024/04/05 08:42:24;;;;;;;;;;;26.10;36.90;;;;;;5044403;28;19944;-57
2024/04/05 08:44:50;;;;;;;;;;;26.10;36.90;;;;;;5047922;28;19940;-58
2024/04/05 08:47:17;;;;;;;;;;;26.20;36.90;;;;;;5044130;28;20292;-59
2024/04/05 08:49:47;;;;;;;;;;;26.20;36.80;;;;;;5047420;28;19932;-56
2024/04/05 08:52:13;;;;;;;;;;;26.20;36.80;;;;;;5065063;28;19945;-55
2024/04/05 08:54:39;;;;;;;;;;;26.30;36.70;;;;;;5032940;28;19960;-56
2024/04/05 08:57:06;;;;;;;;;;;26.30;36.60;;;;;;5045300;28;20306;-57
2024/04/05 08:59:33;;;;;;;;;;;26.30;36.50;;;;;;5067299;28;19925;-58
2024/04/05 09:02:00;;;;;;;;;;;26.30;36.30;;;;;;5049968;28;19979;-54
2024/04/05 09:04:26;;;;;;;;;;;26.40;36.50;;;;;;5043843;28;19929;-54
2024/04/05 09:06:52;;;;;;;;;;;26.40;36.50;;;;;;5044207;28;19928;-57
2024/04/05 09:09:29;;;;;;;;;;;26.40;36.40;;;;;;5040059;28;20436;-59
2024/04/05 09:12:07;;;;;;;;;;;26.40;36.90;;;;;;5044210;28;20674;-56
2024/04/05 09:14:37;;;;;;;;;;;26.40;36.30;;;;;;5046324;28;19925;-58
2024/04/05 09:17:04;;;;;;;;;;;26.40;36.00;;;;;;5062136;28;19933;-59
2024/04/05 09:19:30;;;;;;;;;;;26.40;35.80;;;;;;5025136;28;19940;-58
2024/04/05 09:21:57;;;;;;;;;;;26.40;36.40;;;;;;5051326;28;19990;-58
2024/04/05 09:24:22;;;;;;;;;;;26.40;35.90;;;;;;5019133;28;20290;-58
2024/04/05 09:27:00;;;;;;;;;;;26.40;35.80;;;;;;5026040;28;19929;-55
2024/04/05 09:29:26;;;;;;;;;;;26.40;35.80;;;;;;5043496;28;20297;-57
2024/04/05 09:31:54;;;;;;;;;;;26.50;36.00;;;;;;5045689;28;19933;-59
2024/04/05 09:34:25;;;;;;;;;;;26.50;36.10;;;;;;5046083;28;20427;-58
2024/04/05 09:36:51;;;;;;;;;;;26.50;36.00;;;;;;5044692;28;19971;-57
2024/04/05 09:39:21;;;;;;;;;;;26.50;35.80;;;;;;5050401;28;19929;-58
2024/04/05 09:41:47;;;;;;;;;;;26.50;35.70;;;;;;5046174;28;19935;-59
2024/04/05 09:44:13;;;;;;;;;;;26.50;35.80;;;;;;5047708;28;19936;-58
2024/04/05 09:46:41;;;;;;;;;;;26.50;35.70;;;;;;5047058;28;19939;-58
2024/04/05 09:49:07;;;;;;;;;;;26.50;35.70;;;;;;5047378;28;19929;-58
2024/04/05 09:51:42;;;;;;;;;;;26.50;35.70;;;;;;5051562;28;19940;-58
2024/04/05 09:54:19;;;;;;;;;;;26.50;35.60;;;;;;5037425;28;20373;-60
2024/04/05 09:56:45;;;;;;;;;;;26.50;35.60;;;;;;5047264;28;19936;-58
2024/04/05 09:59:17;;;;;;;;;;;26.60;35.60;;;;;;5048031;28;19932;-60
2024/04/05 10:01:46;;;;;;;;;;;26.60;35.60;;;;;;5046854;28;19929;-59
2024/04/05 10:04:12;;;;;;;;;;;26.60;35.60;;;;;;5047855;28;20370;-58
2024/04/05 10:06:39;;;;;;;;;;;26.60;35.50;;;;;;5046536;28;20329;-58
2024/04/05 10:09:18;;;;;;;;;;;26.60;35.40;;;;;;5049658;28;19936;-58
2024/04/05 10:11:51;;;;;;;;;;;26.60;35.60;;;;;;5047734;28;20298;-58
2024/04/05 10:14:20;;;;;;;;;;;26.60;35.60;;;;;;5048770;28;19933;-59
2024/04/05 10:16:47;;;;;;;;;;;26.60;35.60;;;;;;5049665;28;19932;-59
2024/04/05 10:19:13;;;;;;;;;;;26.60;35.60;;;;;;5016121;28;20657;-60
2024/04/05 10:21:40;;;;;;;;;;;26.60;36.20;;;;;;5048753;28;19936;-60
2024/04/05 10:24:06;;;;;;;;;;;26.60;36.20;;;;;;5049678;28;19929;-59
2024/04/05 10:26:33;;;;;;;;;;;26.60;35.60;;;;;;5048483;28;19932;-59
2024/04/05 10:29:05;;;;;;;;;;;26.60;35.50;;;;;;5043968;28;19991;-59
2024/04/05 10:31:32;;;;;;;;;;;26.60;35.40;;;;;;5032263;28;19929;-59
2024/04/05 10:34:00;;;;;;;;;;;26.60;35.40;;;;;;5051084;28;19944;-59
2024/04/05 10:36:26;;;;;;;;;;;26.60;35.40;;;;;;5038844;28;19982;-59
2024/04/05 10:38:52;;;;;;;;;;;26.60;35.70;;;;;;5046345;28;19974;-59
2024/04/05 10:41:18;;;;;;;;;;;26.60;35.70;;;;;;5046379;28;19933;-60
2024/04/05 10:43:44;;;;;;;;;;;26.60;35.70;;;;;;5042735;28;19925;-58
2024/04/05 10:46:13;;;;;;;;;;;26.60;35.70;;;;;;5043558;28;20010;-59
2024/04/05 10:48:39;;;;;;;;;;;26.60;35.80;;;;;;5046258;28;19951;-58
2024/04/05 10:51:05;;;;;;;;;;;26.60;35.70;;;;;;5027099;28;19933;-58
2024/04/05 10:53:31;;;;;;;;;;;26.60;35.60;;;;;;5028482;28;19928;-60
2024/04/05 10:55:57;;;;;;;;;;;26.60;35.70;;;;;;5043557;28;19929;-57
2024/04/05 10:58:23;;;;;;;;;;;26.60;35.70;;;;;;5046611;28;20447;-58
2024/04/05 11:00:49;;;;;;;;;;;26.60;35.60;;;;;;5043041;28;19928;-58
2024/04/05 11:03:16;;;;;;;;;;;26.60;35.90;;;;;;5041618;28;19936;-58
2024/04/05 11:05:44;;;;;;;;;;;26.60;35.90;;;;;;5047540;28;19932;-59
2024/04/05 11:08:13;;;;;;;;;;;26.70;36.10;;;;;;5047904;28;19924;-59
2024/04/05 11:10:39;;;;;;;;;;;26.70;36.80;;;;;;5045476;28;19925;-59
2024/04/05 11:13:15;;;;;;;;;;;26.70;36.20;;;;;;5049248;28;20470;-59
2024/04/05 11:15:41;;;;;;;;;;;26.80;36.20;;;;;;5039292;28;19959;-59
2024/04/05 11:18:07;;;;;;;;;;;26.80;35.90;;;;;;5043695;28;19928;-60
2024/04/05 11:20:35;;;;;;;;;;;26.80;35.70;;;;;;5043873;28;19975;-63
2024/04/05 11:23:02;;;;;;;;;;;26.90;35.70;;;;;;5045540;28;19925;-61
2024/04/05 11:25:29;;;;;;;;;;;26.90;35.70;;;;;;5046087;28;19936;-60
2024/04/05 11:27:55;;;;;;;;;;;27.00;35.90;;;;;;5046517;28;19928;-60
2024/04/05 11:30:21;;;;;;;;;;;27.00;35.80;;;;;;5044947;28;19935;-60
2024/04/05 11:32:47;;;;;;;;;;;27.00;35.50;;;;;;5043406;28;19925;-62
2024/04/05 11:35:13;;;;;;;;;;;27.10;35.40;;;;;;5046428;28;20019;-62
2024/04/05 11:37:40;;;;;;;;;;;27.10;35.40;;;;;;5055310;28;19936;-59
2024/04/05 11:40:09;;;;;;;;;;;27.20;35.50;;;;;;5043544;28;20377;-60
2024/04/05 11:42:35;;;;;;;;;;;27.20;35.50;;;;;;5041508;28;20263;-61
2024/04/05 11:45:01;;;;;;;;;;;27.30;35.50;;;;;;5050746;28;19925;-60
2024/04/05 11:47:27;;;;;;;;;;;27.30;35.50;;;;;;5032734;28;19933;-60
2024/04/05 11:49:53;;;;;;;;;;;27.30;35.30;;;;;;5046601;28;19924;-60
2024/04/05 11:52:19;;;;;;;;;;;27.30;35.20;;;;;;5052545;28;19925;-61
2024/04/05 11:54:46;;;;;;;;;;;27.40;35.30;;;;;;5053032;28;19937;-61
2024/04/05 11:57:16;;;;;;;;;;;27.40;35.20;;;;;;5044230;28;19928;-61
2024/04/05 11:59:43;;;;;;;;;;;27.40;35.20;;;;;;5051458;28;19925;-63
2024/04/05 12:02:09;;;;;;;;;;;27.40;35.10;;;;;;5048877;28;19929;-61
2024/04/05 12:04:36;;;;;;;;;;;27.40;35.20;;;;;;5047603;28;19978;-61
2024/04/05 12:07:03;;;;;;;;;;;27.40;35.30;;;;;;5052758;28;19925;-61
2024/04/05 12:09:29;;;;;;;;;;;27.40;35.20;;;;;;5054597;28;19933;-61
2024/04/05 12:11:54;;;;;;;;;;;27.40;35.20;;;;;;5051603;28;19925;-61
2024/04/05 12:14:20;;;;;;;;;;;27.40;35.10;;;;;;5054189;28;19948;-61
2024/04/05 12:16:46;;;;;;;;;;;27.40;35.20;;;;;;5054008;28;20317;-61
2024/04/05 12:19:12;;;;;;;;;;;27.40;35.20;;;;;;5053877;28;20298;-61
2024/04/05 12:21:39;;;;;;;;;;;27.40;35.30;;;;;;5051999;28;20443;-61
2024/04/05 12:24:06;;;;;;;;;;;27.40;35.30;;;;;;5053128;28;19929;-61
2024/04/05 12:26:32;;;;;;;;;;;27.40;35.30;;;;;;5052936;28;19925;-61
2024/04/05 12:28:58;;;;;;;;;;;27.40;35.30;;;;;;5054065;28;19925;-61
2024/04/05 12:31:27;;;;;;;;;;;27.40;35.30;;;;;;5053409;28;19932;-61
2024/04/05 12:33:53;;;;;;;;;;;27.40;35.30;;;;;;5051290;28;20135;-61
2024/04/05 12:36:20;;;;;;;;;;;27.40;35.40;;;;;;5054028;28;20373;-61
2024/04/05 12:38:46;;;;;;;;;;;27.40;35.40;;;;;;5054706;28;20344;-61
2024/04/05 12:41:12;;;;;;;;;;;27.40;35.50;;;;;;5054776;28;19933;-61
2024/04/05 12:43:38;;;;;;;;;;;27.40;35.70;;;;;;5053307;28;19925;-61
2024/04/05 12:46:05;;;;;;;;;;;27.40;35.80;;;;;;5037058;28;19929;-61
2024/04/05 12:48:31;;;;;;;;;;;27.40;35.90;;;;;;5060332;28;19924;-61
2024/04/05 12:50:58;;;;;;;;;;;27.40;35.90;;;;;;5052889;28;19925;-61
2024/04/05 12:53:25;;;;;;;;;;;27.40;35.70;;;;;;5054022;28;20325;-61
2024/04/05 12:55:54;;;;;;;;;;;27.40;35.60;;;;;;5053726;28;19924;-61
2024/04/05 12:58:21;;;;;;;;;;;27.40;35.60;;;;;;5054146;28;19924;-61
2024/04/05 13:00:46;;;;;;;;;;;27.40;35.70;;;;;;5053910;28;19925;-62
2024/04/05 13:03:13;;;;;;;;;;;27.40;39.20;;;;;;5052434;28;19925;-62
2024/04/05 13:05:38;;;;;;;;;;;27.40;40.30;;;;;;5052179;28;19959;-63
2024/04/05 13:08:05;;;;;;;;;;;27.40;40.10;;;;;;5053099;28;20352;-62
2024/04/05 13:10:30;;;;;;;;;;;27.40;38.70;;;;;;5077549;28;19948;-62
2024/04/05 13:12:56;;;;;;;;;;;27.40;38.70;;;;;;5053682;28;19925;-62
2024/04/05 13:15:23;;;;;;;;;;;27.40;38.60;;;;;;5054444;28;19925;-62
2024/04/05 13:17:48;;;;;;;;;;;27.50;38.00;;;;;;5053961;28;19936;-62
2024/04/05 13:20:14;;;;;;;;;;;27.50;37.40;;;;;;5053537;28;19925;-62
2024/04/05 13:22:40;;;;;;;;;;;27.50;37.10;;;;;;5053907;28;19924;-61
2024/04/05 13:25:06;;;;;;;;;;;27.50;36.90;;;;;;5053905;28;19963;-61
2024/04/05 13:27:32;;;;;;;;;;;27.50;37.10;;;;;;5053716;28;19943;-61
2024/04/05 13:29:58;;;;;;;;;;;27.50;36.80;;;;;;5052968;28;19925;-61
2024/04/05 13:32:24;;;;;;;;;;;27.50;36.40;;;;;;5053879;28;19925;-62
2024/04/05 13:34:53;;;;;;;;;;;27.50;36.50;;;;;;5053346;28;20385;-62
2024/04/05 13:37:18;;;;;;;;;;;27.50;36.60;;;;;;5053868;28;19933;-61
2024/04/05 13:39:44;;;;;;;;;;;27.50;36.60;;;;;;5053960;28;20027;-63
2024/04/05 13:42:10;;;;;;;;;;;27.50;36.40;;;;;;5053895;28;20399;-61
2024/04/05 13:44:36;;;;;;;;;;;27.50;36.20;;;;;;5053897;28;19947;-61
2024/04/05 13:47:02;;;;;;;;;;;27.50;36.10;;;;;;5061278;28;19928;-62
2024/04/05 13:49:28;;;;;;;;;;;27.50;36.00;;;;;;5072026;28;19946;-61
2024/04/05 13:51:53;;;;;;;;;;;27.50;35.90;;;;;;5036425;28;19932;-61
2024/04/05 13:54:19;;;;;;;;;;;27.50;35.80;;;;;;5054428;28;20362;-62
2024/04/05 13:56:45;;;;;;;;;;;27.50;35.80;;;;;;5062092;28;19979;-62
2024/04/05 13:59:11;;;;;;;;;;;27.50;35.70;;;;;;5064132;28;19943;-61
2024/04/05 14:01:38;;;;;;;;;;;27.60;35.60;;;;;;5073534;28;19925;-61
2024/04/05 14:04:04;;;;;;;;;;;27.60;35.60;;;;;;5072033;28;19924;-62
2024/04/05 14:06:30;;;;;;;;;;;27.60;35.60;;;;;;5056282;28;19925;-61
2024/04/05 14:08:56;;;;;;;;;;;27.60;35.60;;;;;;5066247;28;19924;-62
2024/04/05 14:11:22;;;;;;;;;;;27.60;35.60;;;;;;5053346;28;20325;-61